sensor_id;sensor_type;location;lat;lon;timestamp;P1;durP1;ratioP1;P2;durP2;ratioP2
22429;SDS011;11382;48.086;11.632;2022-10-16T00:01:04;2.58;;;1.25;;
22429;SDS011;11382;48.086;11.632;2022-10-16T00:03:33;1.83;;;1.30;;
22429;SDS011;11382;48.086;11.632;2022-10-16T00:06:01;2.70;;;1.08;;
22429;SDS011;11382;48.086;11.632;2022-10-16T00:08:31;3.88;;;1.30;;
22429;SDS011;11382;48.086;11.632;2022-10-16T00:11:00;2.00;;;1.67;;
22429;SDS011;11382;48.086;11.632;2022-10-16T00:13:29;2.13;;;1.33;;
22429;SDS011;11382;48.086;11.632;2022-10-16T00:15:58;4.03;;;1.65;;
22429;SDS011;11382;48.086;11.632;2022-10-16T00:18:28;2.72;;;1.40;;
22429;SDS011;11382;48.086;11.632;2022-10-16T00:21:01;2.45;;;1.30;;
22429;SDS011;11382;48.086;11.632;2022-10-16T00:23:32;4.05;;;1.10;;
22429;SDS011;11382;48.086;11.632;2022-10-16T00:26:01;2.30;;;1.45;;
22429;SDS011;11382;48.086;11.632;2022-10-16T00:28:31;2.75;;;1.50;;
22429;SDS011;11382;48.086;11.632;2022-10-16T00:31:04;3.28;;;1.40;;
22429;SDS011;11382;48.086;11.632;2022-10-16T00:33:33;3.83;;;1.40;;
22429;SDS011;11382;48.086;11.632;2022-10-16T00:36:01;3.03;;;1.35;;
22429;SDS011;11382;48.086;11.632;2022-10-16T00:38:32;2.85;;;1.23;;
22429;SDS011;11382;48.086;11.632;2022-10-16T00:41:00;2.78;;;1.60;;
22429;SDS011;11382;48.086;11.632;2022-10-16T00:43:32;1.88;;;1.52;;
22429;SDS011;11382;48.086;11.632;2022-10-16T00:46:05;2.80;;;1.40;;
22429;SDS011;11382;48.086;11.632;2022-10-16T00:48:38;3.65;;;1.70;;
22429;SDS011;11382;48.086;11.632;2022-10-16T00:51:06;2.95;;;1.42;;
22429;SDS011;11382;48.086;11.632;2022-10-16T00:53:36;1.85;;;1.40;;
22429;SDS011;11382;48.086;11.632;2022-10-16T00:56:04;6.22;;;1.63;;
22429;SDS011;11382;48.086;11.632;2022-10-16T00:58:33;2.60;;;1.50;;
22429;SDS011;11382;48.086;11.632;2022-10-16T01:01:01;3.25;;;1.50;;
22429;SDS011;11382;48.086;11.632;2022-10-16T01:03:30;4.38;;;1.55;;
22429;SDS011;11382;48.086;11.632;2022-10-16T01:06:04;2.38;;;1.33;;
22429;SDS011;11382;48.086;11.632;2022-10-16T01:08:47;4.25;;;1.30;;
22429;SDS011;11382;48.086;11.632;2022-10-16T01:11:24;3.92;;;1.35;;
22429;SDS011;11382;48.086;11.632;2022-10-16T01:13:58;4.70;;;1.40;;
22429;SDS011;11382;48.086;11.632;2022-10-16T01:16:34;1.50;;;1.23;;
22429;SDS011;11382;48.086;11.632;2022-10-16T01:19:09;1.58;;;1.27;;
22429;SDS011;11382;48.086;11.632;2022-10-16T01:21:41;4.05;;;1.15;;
22429;SDS011;11382;48.086;11.632;2022-10-16T01:24:15;1.45;;;1.35;;
22429;SDS011;11382;48.086;11.632;2022-10-16T01:27:01;5.93;;;1.40;;
22429;SDS011;11382;48.086;11.632;2022-10-16T01:29:34;1.40;;;1.30;;
22429;SDS011;11382;48.086;11.632;2022-10-16T01:34:38;1.40;;;1.08;;
22429;SDS011;11382;48.086;11.632;2022-10-16T01:37:12;2.22;;;1.17;;
22429;SDS011;11382;48.086;11.632;2022-10-16T01:39:45;1.80;;;1.23;;
22429;SDS011;11382;48.086;11.632;2022-10-16T01:42:16;1.85;;;1.30;;
22429;SDS011;11382;48.086;11.632;2022-10-16T01:44:48;4.53;;;1.20;;
22429;SDS011;11382;48.086;11.632;2022-10-16T01:47:18;6.57;;;1.30;;
22429;SDS011;11382;48.086;11.632;2022-10-16T01:49:51;4.45;;;1.55;;
22429;SDS011;11382;48.086;11.632;2022-10-16T01:52:21;4.28;;;1.20;;
22429;SDS011;11382;48.086;11.632;2022-10-16T01:54:54;1.40;;;1.02;;
22429;SDS011;11382;48.086;11.632;2022-10-16T01:57:26;2.72;;;1.15;;
22429;SDS011;11382;48.086;11.632;2022-10-16T01:59:56;1.73;;;1.23;;
22429;SDS011;11382;48.086;11.632;2022-10-16T02:02:37;4.40;;;1.50;;
22429;SDS011;11382;48.086;11.632;2022-10-16T02:05:08;1.58;;;1.25;;
22429;SDS011;11382;48.086;11.632;2022-10-16T02:07:39;12.88;;;1.75;;
22429;SDS011;11382;48.086;11.632;2022-10-16T02:10:08;1.88;;;1.13;;
22429;SDS011;11382;48.086;11.632;2022-10-16T02:12:39;3.30;;;2.08;;
22429;SDS011;11382;48.086;11.632;2022-10-16T02:15:11;4.65;;;1.80;;
22429;SDS011;11382;48.086;11.632;2022-10-16T02:17:40;2.63;;;1.23;;
22429;SDS011;11382;48.086;11.632;2022-10-16T02:20:08;1.90;;;1.23;;
22429;SDS011;11382;48.086;11.632;2022-10-16T02:22:38;1.67;;;1.40;;
22429;SDS011;11382;48.086;11.632;2022-10-16T02:25:10;7.47;;;1.50;;
22429;SDS011;11382;48.086;11.632;2022-10-16T02:27:48;2.97;;;1.65;;
22429;SDS011;11382;48.086;11.632;2022-10-16T02:30:23;2.80;;;1.20;;
22429;SDS011;11382;48.086;11.632;2022-10-16T02:32:54;1.98;;;1.67;;
22429;SDS011;11382;48.086;11.632;2022-10-16T02:35:23;4.22;;;1.60;;
22429;SDS011;11382;48.086;11.632;2022-10-16T02:37:53;4.07;;;1.70;;
22429;SDS011;11382;48.086;11.632;2022-10-16T02:40:22;3.13;;;1.30;;
22429;SDS011;11382;48.086;11.632;2022-10-16T02:42:53;2.58;;;1.50;;
22429;SDS011;11382;48.086;11.632;2022-10-16T02:45:21;2.45;;;1.45;;
22429;SDS011;11382;48.086;11.632;2022-10-16T02:47:51;4.22;;;1.40;;
22429;SDS011;11382;48.086;11.632;2022-10-16T02:50:19;4.53;;;1.60;;
22429;SDS011;11382;48.086;11.632;2022-10-16T02:52:47;2.08;;;1.30;;
22429;SDS011;11382;48.086;11.632;2022-10-16T02:55:15;4.20;;;1.52;;
22429;SDS011;11382;48.086;11.632;2022-10-16T02:57:44;2.83;;;1.50;;
22429;SDS011;11382;48.086;11.632;2022-10-16T03:00:15;3.75;;;1.63;;
22429;SDS011;11382;48.086;11.632;2022-10-16T03:02:44;1.70;;;1.15;;
22429;SDS011;11382;48.086;11.632;2022-10-16T03:05:12;1.92;;;1.40;;
22429;SDS011;11382;48.086;11.632;2022-10-16T03:07:41;4.13;;;1.35;;
22429;SDS011;11382;48.086;11.632;2022-10-16T03:10:11;4.30;;;1.70;;
22429;SDS011;11382;48.086;11.632;2022-10-16T03:12:39;2.20;;;1.55;;
22429;SDS011;11382;48.086;11.632;2022-10-16T03:15:08;6.22;;;1.58;;
22429;SDS011;11382;48.086;11.632;2022-10-16T03:17:38;3.65;;;1.45;;
22429;SDS011;11382;48.086;11.632;2022-10-16T03:20:07;3.35;;;1.55;;
22429;SDS011;11382;48.086;11.632;2022-10-16T03:22:35;2.95;;;1.63;;
22429;SDS011;11382;48.086;11.632;2022-10-16T03:25:03;1.92;;;1.50;;
22429;SDS011;11382;48.086;11.632;2022-10-16T03:27:32;1.73;;;1.48;;
22429;SDS011;11382;48.086;11.632;2022-10-16T03:30:00;4.50;;;1.48;;
22429;SDS011;11382;48.086;11.632;2022-10-16T03:32:28;2.03;;;1.60;;
22429;SDS011;11382;48.086;11.632;2022-10-16T03:34:57;5.57;;;1.50;;
22429;SDS011;11382;48.086;11.632;2022-10-16T03:37:25;2.20;;;1.50;;
22429;SDS011;11382;48.086;11.632;2022-10-16T03:39:54;3.85;;;2.03;;
22429;SDS011;11382;48.086;11.632;2022-10-16T03:42:22;5.90;;;1.70;;
22429;SDS011;11382;48.086;11.632;2022-10-16T03:44:50;2.50;;;1.95;;
22429;SDS011;11382;48.086;11.632;2022-10-16T03:47:18;5.07;;;1.88;;
22429;SDS011;11382;48.086;11.632;2022-10-16T03:49:48;3.03;;;1.88;;
22429;SDS011;11382;48.086;11.632;2022-10-16T03:52:17;2.33;;;1.58;;
22429;SDS011;11382;48.086;11.632;2022-10-16T03:54:45;3.00;;;1.75;;
22429;SDS011;11382;48.086;11.632;2022-10-16T03:57:13;5.63;;;1.73;;
22429;SDS011;11382;48.086;11.632;2022-10-16T03:59:42;2.47;;;1.80;;
22429;SDS011;11382;48.086;11.632;2022-10-16T04:02:10;3.90;;;1.52;;
22429;SDS011;11382;48.086;11.632;2022-10-16T04:04:38;1.75;;;1.48;;
22429;SDS011;11382;48.086;11.632;2022-10-16T04:07:06;4.03;;;1.60;;
22429;SDS011;11382;48.086;11.632;2022-10-16T04:09:35;3.05;;;1.48;;
22429;SDS011;11382;48.086;11.632;2022-10-16T04:12:03;2.80;;;1.27;;
22429;SDS011;11382;48.086;11.632;2022-10-16T04:14:31;2.40;;;1.38;;
22429;SDS011;11382;48.086;11.632;2022-10-16T04:16:59;2.00;;;1.40;;
22429;SDS011;11382;48.086;11.632;2022-10-16T04:19:27;2.03;;;1.70;;
22429;SDS011;11382;48.086;11.632;2022-10-16T04:21:55;4.18;;;1.48;;
22429;SDS011;11382;48.086;11.632;2022-10-16T04:24:23;2.00;;;1.63;;
22429;SDS011;11382;48.086;11.632;2022-10-16T04:26:52;4.00;;;1.55;;
22429;SDS011;11382;48.086;11.632;2022-10-16T04:29:20;1.45;;;1.20;;
22429;SDS011;11382;48.086;11.632;2022-10-16T04:31:48;3.05;;;1.30;;
22429;SDS011;11382;48.086;11.632;2022-10-16T04:34:16;1.30;;;1.20;;
22429;SDS011;11382;48.086;11.632;2022-10-16T04:36:46;2.05;;;1.23;;
22429;SDS011;11382;48.086;11.632;2022-10-16T04:39:15;2.17;;;1.30;;
22429;SDS011;11382;48.086;11.632;2022-10-16T04:41:43;3.67;;;1.45;;
22429;SDS011;11382;48.086;11.632;2022-10-16T04:44:13;3.78;;;1.50;;
22429;SDS011;11382;48.086;11.632;2022-10-16T04:46:41;2.33;;;1.30;;
22429;SDS011;11382;48.086;11.632;2022-10-16T04:49:08;4.53;;;1.60;;
22429;SDS011;11382;48.086;11.632;2022-10-16T04:51:36;2.55;;;1.05;;
22429;SDS011;11382;48.086;11.632;2022-10-16T04:54:04;2.53;;;1.40;;
22429;SDS011;11382;48.086;11.632;2022-10-16T04:56:33;1.50;;;1.30;;
22429;SDS011;11382;48.086;11.632;2022-10-16T05:01:35;2.78;;;1.58;;
22429;SDS011;11382;48.086;11.632;2022-10-16T05:04:03;2.83;;;1.48;;
22429;SDS011;11382;48.086;11.632;2022-10-16T05:06:31;3.05;;;1.40;;
22429;SDS011;11382;48.086;11.632;2022-10-16T05:08:59;4.57;;;1.40;;
22429;SDS011;11382;48.086;11.632;2022-10-16T05:11:27;3.85;;;1.40;;
22429;SDS011;11382;48.086;11.632;2022-10-16T05:13:55;1.95;;;1.35;;
22429;SDS011;11382;48.086;11.632;2022-10-16T05:16:23;1.95;;;1.40;;
22429;SDS011;11382;48.086;11.632;2022-10-16T05:18:53;2.47;;;1.50;;
22429;SDS011;11382;48.086;11.632;2022-10-16T05:21:29;5.60;;;1.48;;
22429;SDS011;11382;48.086;11.632;2022-10-16T05:23:57;2.35;;;1.65;;
22429;SDS011;11382;48.086;11.632;2022-10-16T05:26:25;6.55;;;1.50;;
22429;SDS011;11382;48.086;11.632;2022-10-16T05:28:54;2.53;;;1.80;;
22429;SDS011;11382;48.086;11.632;2022-10-16T05:31:22;3.65;;;1.50;;
22429;SDS011;11382;48.086;11.632;2022-10-16T05:33:50;4.95;;;1.52;;
22429;SDS011;11382;48.086;11.632;2022-10-16T05:36:19;4.70;;;1.48;;
22429;SDS011;11382;48.086;11.632;2022-10-16T05:38:50;2.85;;;1.33;;
22429;SDS011;11382;48.086;11.632;2022-10-16T05:41:37;2.42;;;1.23;;
22429;SDS011;11382;48.086;11.632;2022-10-16T05:44:06;4.53;;;1.50;;
22429;SDS011;11382;48.086;11.632;2022-10-16T05:46:34;3.90;;;1.60;;
22429;SDS011;11382;48.086;11.632;2022-10-16T05:49:02;2.88;;;1.67;;
22429;SDS011;11382;48.086;11.632;2022-10-16T05:51:31;2.45;;;1.60;;
22429;SDS011;11382;48.086;11.632;2022-10-16T05:53:59;4.75;;;1.73;;
22429;SDS011;11382;48.086;11.632;2022-10-16T05:56:27;3.33;;;1.48;;
22429;SDS011;11382;48.086;11.632;2022-10-16T05:58:56;3.20;;;1.55;;
22429;SDS011;11382;48.086;11.632;2022-10-16T06:01:24;2.80;;;1.75;;
22429;SDS011;11382;48.086;11.632;2022-10-16T06:03:52;4.18;;;1.88;;
22429;SDS011;11382;48.086;11.632;2022-10-16T06:06:20;2.45;;;1.63;;
22429;SDS011;11382;48.086;11.632;2022-10-16T06:08:51;3.58;;;1.63;;
22429;SDS011;11382;48.086;11.632;2022-10-16T06:11:22;3.03;;;1.58;;
22429;SDS011;11382;48.086;11.632;2022-10-16T06:13:52;3.65;;;2.13;;
22429;SDS011;11382;48.086;11.632;2022-10-16T06:16:23;2.03;;;1.42;;
22429;SDS011;11382;48.086;11.632;2022-10-16T06:18:51;2.25;;;1.83;;
22429;SDS011;11382;48.086;11.632;2022-10-16T06:21:21;3.33;;;1.88;;
22429;SDS011;11382;48.086;11.632;2022-10-16T06:23:52;4.05;;;1.90;;
22429;SDS011;11382;48.086;11.632;2022-10-16T06:26:22;3.47;;;1.90;;
22429;SDS011;11382;48.086;11.632;2022-10-16T06:28:51;1.88;;;1.55;;
22429;SDS011;11382;48.086;11.632;2022-10-16T06:31:22;4.32;;;1.80;;
22429;SDS011;11382;48.086;11.632;2022-10-16T06:33:53;2.55;;;1.55;;
22429;SDS011;11382;48.086;11.632;2022-10-16T06:36:22;1.77;;;1.58;;
22429;SDS011;11382;48.086;11.632;2022-10-16T06:38:52;2.70;;;1.30;;
22429;SDS011;11382;48.086;11.632;2022-10-16T06:41:21;5.93;;;1.95;;
22429;SDS011;11382;48.086;11.632;2022-10-16T06:43:50;5.13;;;1.80;;
22429;SDS011;11382;48.086;11.632;2022-10-16T06:46:20;3.88;;;1.70;;
22429;SDS011;11382;48.086;11.632;2022-10-16T06:48:50;3.28;;;1.70;;
22429;SDS011;11382;48.086;11.632;2022-10-16T06:51:18;2.28;;;1.45;;
22429;SDS011;11382;48.086;11.632;2022-10-16T06:53:48;2.55;;;1.50;;
22429;SDS011;11382;48.086;11.632;2022-10-16T06:56:35;2.15;;;1.60;;
22429;SDS011;11382;48.086;11.632;2022-10-16T06:59:03;2.13;;;1.50;;
22429;SDS011;11382;48.086;11.632;2022-10-16T07:01:32;5.15;;;1.60;;
22429;SDS011;11382;48.086;11.632;2022-10-16T07:04:00;2.97;;;1.80;;
22429;SDS011;11382;48.086;11.632;2022-10-16T07:06:30;2.30;;;1.73;;
22429;SDS011;11382;48.086;11.632;2022-10-16T07:09:01;2.38;;;1.65;;
22429;SDS011;11382;48.086;11.632;2022-10-16T07:11:31;2.85;;;1.55;;
22429;SDS011;11382;48.086;11.632;2022-10-16T07:14:01;2.78;;;1.55;;
22429;SDS011;11382;48.086;11.632;2022-10-16T07:16:29;3.53;;;1.75;;
22429;SDS011;11382;48.086;11.632;2022-10-16T07:18:59;2.65;;;1.42;;
22429;SDS011;11382;48.086;11.632;2022-10-16T07:21:29;4.55;;;1.63;;
22429;SDS011;11382;48.086;11.632;2022-10-16T07:24:01;2.13;;;1.88;;
22429;SDS011;11382;48.086;11.632;2022-10-16T07:26:32;2.15;;;1.60;;
22429;SDS011;11382;48.086;11.632;2022-10-16T07:29:02;3.03;;;1.80;;
22429;SDS011;11382;48.086;11.632;2022-10-16T07:31:31;3.10;;;1.38;;
22429;SDS011;11382;48.086;11.632;2022-10-16T07:33:59;2.92;;;1.85;;
22429;SDS011;11382;48.086;11.632;2022-10-16T07:36:27;2.33;;;1.83;;
22429;SDS011;11382;48.086;11.632;2022-10-16T07:38:56;2.28;;;1.50;;
22429;SDS011;11382;48.086;11.632;2022-10-16T07:41:26;5.55;;;1.98;;
22429;SDS011;11382;48.086;11.632;2022-10-16T07:43:54;3.28;;;1.73;;
22429;SDS011;11382;48.086;11.632;2022-10-16T07:46:27;6.45;;;1.85;;
22429;SDS011;11382;48.086;11.632;2022-10-16T07:48:56;1.60;;;1.50;;
22429;SDS011;11382;48.086;11.632;2022-10-16T07:51:24;2.25;;;1.50;;
22429;SDS011;11382;48.086;11.632;2022-10-16T07:53:53;3.72;;;1.92;;
22429;SDS011;11382;48.086;11.632;2022-10-16T07:56:22;2.38;;;2.17;;
22429;SDS011;11382;48.086;11.632;2022-10-16T07:58:50;1.90;;;1.75;;
22429;SDS011;11382;48.086;11.632;2022-10-16T08:01:19;2.65;;;1.92;;
22429;SDS011;11382;48.086;11.632;2022-10-16T08:03:50;3.38;;;1.80;;
22429;SDS011;11382;48.086;11.632;2022-10-16T08:06:20;2.15;;;1.95;;
22429;SDS011;11382;48.086;11.632;2022-10-16T08:08:53;2.42;;;1.80;;
22429;SDS011;11382;48.086;11.632;2022-10-16T08:11:21;3.67;;;1.63;;
22429;SDS011;11382;48.086;11.632;2022-10-16T08:13:50;2.35;;;1.70;;
22429;SDS011;11382;48.086;11.632;2022-10-16T08:16:18;3.78;;;1.60;;
22429;SDS011;11382;48.086;11.632;2022-10-16T08:18:46;4.30;;;1.77;;
22429;SDS011;11382;48.086;11.632;2022-10-16T08:21:16;2.15;;;1.83;;
22429;SDS011;11382;48.086;11.632;2022-10-16T08:23:47;3.90;;;1.70;;
22429;SDS011;11382;48.086;11.632;2022-10-16T08:26:23;2.55;;;1.63;;
22429;SDS011;11382;48.086;11.632;2022-10-16T08:28:52;2.05;;;1.70;;
22429;SDS011;11382;48.086;11.632;2022-10-16T08:31:20;3.85;;;1.70;;
22429;SDS011;11382;48.086;11.632;2022-10-16T08:33:49;2.78;;;1.55;;
22429;SDS011;11382;48.086;11.632;2022-10-16T08:36:19;2.05;;;1.50;;
22429;SDS011;11382;48.086;11.632;2022-10-16T08:38:48;2.72;;;1.90;;
22429;SDS011;11382;48.086;11.632;2022-10-16T08:41:32;1.75;;;1.52;;
22429;SDS011;11382;48.086;11.632;2022-10-16T08:44:23;2.17;;;1.63;;
22429;SDS011;11382;48.086;11.632;2022-10-16T08:47:08;3.45;;;1.60;;
22429;SDS011;11382;48.086;11.632;2022-10-16T08:49:48;3.42;;;1.40;;
22429;SDS011;11382;48.086;11.632;2022-10-16T08:52:24;2.72;;;1.48;;
22429;SDS011;11382;48.086;11.632;2022-10-16T08:54:56;2.90;;;1.63;;
22429;SDS011;11382;48.086;11.632;2022-10-16T08:57:25;3.58;;;1.50;;
22429;SDS011;11382;48.086;11.632;2022-10-16T08:59:53;2.17;;;1.50;;
22429;SDS011;11382;48.086;11.632;2022-10-16T09:02:28;1.80;;;1.70;;
22429;SDS011;11382;48.086;11.632;2022-10-16T09:05:02;2.30;;;1.33;;
22429;SDS011;11382;48.086;11.632;2022-10-16T09:07:46;3.65;;;1.65;;
22429;SDS011;11382;48.086;11.632;2022-10-16T09:10:24;1.70;;;1.60;;
22429;SDS011;11382;48.086;11.632;2022-10-16T09:13:02;2.45;;;1.60;;
22429;SDS011;11382;48.086;11.632;2022-10-16T09:15:43;1.92;;;1.70;;
22429;SDS011;11382;48.086;11.632;2022-10-16T09:18:15;2.35;;;1.63;;
22429;SDS011;11382;48.086;11.632;2022-10-16T09:20:49;1.98;;;1.77;;
22429;SDS011;11382;48.086;11.632;2022-10-16T09:23:22;2.85;;;1.70;;
22429;SDS011;11382;48.086;11.632;2022-10-16T09:25:53;1.50;;;1.40;;
22429;SDS011;11382;48.086;11.632;2022-10-16T09:28:23;2.38;;;1.35;;
22429;SDS011;11382;48.086;11.632;2022-10-16T09:30:51;1.60;;;1.50;;
22429;SDS011;11382;48.086;11.632;2022-10-16T09:33:20;1.50;;;1.30;;
22429;SDS011;11382;48.086;11.632;2022-10-16T09:35:51;2.15;;;1.50;;
22429;SDS011;11382;48.086;11.632;2022-10-16T09:38:24;3.40;;;1.20;;
22429;SDS011;11382;48.086;11.632;2022-10-16T09:40:54;3.25;;;1.77;;
22429;SDS011;11382;48.086;11.632;2022-10-16T09:43:31;1.50;;;1.40;;
22429;SDS011;11382;48.086;11.632;2022-10-16T09:46:04;1.40;;;1.30;;
22429;SDS011;11382;48.086;11.632;2022-10-16T09:48:36;2.47;;;1.30;;
22429;SDS011;11382;48.086;11.632;2022-10-16T09:51:06;1.80;;;1.70;;
22429;SDS011;11382;48.086;11.632;2022-10-16T09:53:45;1.30;;;1.15;;
22429;SDS011;11382;48.086;11.632;2022-10-16T09:56:20;1.50;;;1.40;;
22429;SDS011;11382;48.086;11.632;2022-10-16T09:58:50;2.95;;;1.50;;
22429;SDS011;11382;48.086;11.632;2022-10-16T10:01:19;3.88;;;1.50;;
22429;SDS011;11382;48.086;11.632;2022-10-16T10:03:48;3.05;;;1.60;;
22429;SDS011;11382;48.086;11.632;2022-10-16T10:06:23;3.37;;;1.53;;
22429;SDS011;11382;48.086;11.632;2022-10-16T10:09:02;1.85;;;1.40;;
22429;SDS011;11382;48.086;11.632;2022-10-16T10:11:36;1.60;;;1.40;;
22429;SDS011;11382;48.086;11.632;2022-10-16T10:14:23;2.22;;;1.58;;
22429;SDS011;11382;48.086;11.632;2022-10-16T10:17:11;1.40;;;1.30;;
22429;SDS011;11382;48.086;11.632;2022-10-16T10:19:42;3.70;;;1.70;;
22429;SDS011;11382;48.086;11.632;2022-10-16T10:22:18;2.20;;;1.33;;
22429;SDS011;11382;48.086;11.632;2022-10-16T10:25:12;2.75;;;1.50;;
22429;SDS011;11382;48.086;11.632;2022-10-16T10:30:49;2.83;;;1.40;;
22429;SDS011;11382;48.086;11.632;2022-10-16T10:33:25;2.60;;;1.30;;
22429;SDS011;11382;48.086;11.632;2022-10-16T10:36:02;1.75;;;1.40;;
22429;SDS011;11382;48.086;11.632;2022-10-16T10:38:42;2.67;;;1.70;;
22429;SDS011;11382;48.086;11.632;2022-10-16T10:44:18;1.30;;;1.20;;
22429;SDS011;11382;48.086;11.632;2022-10-16T10:46:55;3.65;;;1.45;;
22429;SDS011;11382;48.086;11.632;2022-10-16T10:49:28;1.45;;;1.35;;
22429;SDS011;11382;48.086;11.632;2022-10-16T10:52:09;1.98;;;1.45;;
22429;SDS011;11382;48.086;11.632;2022-10-16T10:54:45;3.42;;;1.55;;
22429;SDS011;11382;48.086;11.632;2022-10-16T10:57:27;2.85;;;1.50;;
22429;SDS011;11382;48.086;11.632;2022-10-16T11:00:03;1.35;;;1.25;;
22429;SDS011;11382;48.086;11.632;2022-10-16T11:02:43;1.30;;;1.20;;
22429;SDS011;11382;48.086;11.632;2022-10-16T11:08:10;2.95;;;1.00;;
22429;SDS011;11382;48.086;11.632;2022-10-16T11:10:47;0.90;;;0.90;;
22429;SDS011;11382;48.086;11.632;2022-10-16T11:13:26;2.25;;;1.00;;
22429;SDS011;11382;48.086;11.632;2022-10-16T11:16:00;2.05;;;1.00;;
22429;SDS011;11382;48.086;11.632;2022-10-16T11:18:37;0.85;;;0.70;;
22429;SDS011;11382;48.086;11.632;2022-10-16T11:21:14;1.90;;;0.95;;
22429;SDS011;11382;48.086;11.632;2022-10-16T11:23:46;1.45;;;1.10;;
22429;SDS011;11382;48.086;11.632;2022-10-16T11:26:19;0.75;;;0.75;;
22429;SDS011;11382;48.086;11.632;2022-10-16T11:28:52;1.02;;;1.00;;
22429;SDS011;11382;48.086;11.632;2022-10-16T11:31:24;1.10;;;1.00;;
22429;SDS011;11382;48.086;11.632;2022-10-16T11:33:59;0.80;;;0.80;;
22429;SDS011;11382;48.086;11.632;2022-10-16T11:36:33;2.35;;;0.80;;
22429;SDS011;11382;48.086;11.632;2022-10-16T11:39:08;0.90;;;0.90;;
22429;SDS011;11382;48.086;11.632;2022-10-16T11:41:47;2.17;;;0.82;;
22429;SDS011;11382;48.086;11.632;2022-10-16T11:44:27;1.13;;;0.70;;
22429;SDS011;11382;48.086;11.632;2022-10-16T11:47:07;0.90;;;0.88;;
22429;SDS011;11382;48.086;11.632;2022-10-16T11:50:06;0.80;;;0.70;;
22429;SDS011;11382;48.086;11.632;2022-10-16T11:52:42;0.95;;;0.73;;
22429;SDS011;11382;48.086;11.632;2022-10-16T11:55:16;1.75;;;1.08;;
22429;SDS011;11382;48.086;11.632;2022-10-16T11:57:47;1.33;;;0.80;;
22429;SDS011;11382;48.086;11.632;2022-10-16T12:00:21;1.02;;;0.90;;
22429;SDS011;11382;48.086;11.632;2022-10-16T12:02:58;1.05;;;0.80;;
22429;SDS011;11382;48.086;11.632;2022-10-16T12:05:33;0.73;;;0.73;;
22429;SDS011;11382;48.086;11.632;2022-10-16T12:08:12;0.80;;;0.80;;
22429;SDS011;11382;48.086;11.632;2022-10-16T12:10:43;1.52;;;0.90;;
22429;SDS011;11382;48.086;11.632;2022-10-16T12:13:28;3.40;;;0.90;;
22429;SDS011;11382;48.086;11.632;2022-10-16T12:16:19;1.33;;;0.80;;
22429;SDS011;11382;48.086;11.632;2022-10-16T12:18:49;1.58;;;0.82;;
22429;SDS011;11382;48.086;11.632;2022-10-16T12:21:30;1.30;;;0.82;;
22429;SDS011;11382;48.086;11.632;2022-10-16T12:23:59;1.10;;;1.00;;
22429;SDS011;11382;48.086;11.632;2022-10-16T12:26:30;2.90;;;0.77;;
22429;SDS011;11382;48.086;11.632;2022-10-16T12:29:10;1.10;;;0.88;;
22429;SDS011;11382;48.086;11.632;2022-10-16T12:31:44;3.53;;;0.88;;
22429;SDS011;11382;48.086;11.632;2022-10-16T12:34:24;2.13;;;1.00;;
22429;SDS011;11382;48.086;11.632;2022-10-16T12:36:55;0.80;;;0.80;;
22429;SDS011;11382;48.086;11.632;2022-10-16T12:39:36;1.48;;;0.80;;
22429;SDS011;11382;48.086;11.632;2022-10-16T12:42:05;3.22;;;0.80;;
22429;SDS011;11382;48.086;11.632;2022-10-16T12:44:47;0.77;;;0.70;;
22429;SDS011;11382;48.086;11.632;2022-10-16T12:47:23;1.55;;;0.80;;
22429;SDS011;11382;48.086;11.632;2022-10-16T12:50:03;1.08;;;0.90;;
22429;SDS011;11382;48.086;11.632;2022-10-16T12:52:50;0.88;;;0.80;;
22429;SDS011;11382;48.086;11.632;2022-10-16T12:55:18;1.38;;;0.70;;
22429;SDS011;11382;48.086;11.632;2022-10-16T12:57:53;0.70;;;0.70;;
22429;SDS011;11382;48.086;11.632;2022-10-16T13:00:54;1.10;;;0.77;;
22429;SDS011;11382;48.086;11.632;2022-10-16T13:06:33;1.90;;;0.82;;
22429;SDS011;11382;48.086;11.632;2022-10-16T13:12:11;1.00;;;0.77;;
22429;SDS011;11382;48.086;11.632;2022-10-16T13:15:05;0.88;;;0.88;;
22429;SDS011;11382;48.086;11.632;2022-10-16T13:17:56;1.50;;;1.10;;
22429;SDS011;11382;48.086;11.632;2022-10-16T13:20:33;1.10;;;0.60;;
22429;SDS011;11382;48.086;11.632;2022-10-16T13:23:08;1.60;;;1.23;;
22429;SDS011;11382;48.086;11.632;2022-10-16T13:25:45;2.10;;;1.00;;
22429;SDS011;11382;48.086;11.632;2022-10-16T13:28:27;1.33;;;0.90;;
22429;SDS011;11382;48.086;11.632;2022-10-16T13:30:58;0.60;;;0.60;;
22429;SDS011;11382;48.086;11.632;2022-10-16T13:33:30;1.00;;;0.80;;
22429;SDS011;11382;48.086;11.632;2022-10-16T13:36:02;0.98;;;0.80;;
22429;SDS011;11382;48.086;11.632;2022-10-16T13:38:32;1.10;;;0.80;;
22429;SDS011;11382;48.086;11.632;2022-10-16T13:41:02;1.23;;;0.90;;
22429;SDS011;11382;48.086;11.632;2022-10-16T13:43:31;1.45;;;0.82;;
22429;SDS011;11382;48.086;11.632;2022-10-16T13:46:03;1.42;;;0.90;;
22429;SDS011;11382;48.086;11.632;2022-10-16T13:48:32;1.17;;;0.88;;
22429;SDS011;11382;48.086;11.632;2022-10-16T13:51:04;1.10;;;1.00;;
22429;SDS011;11382;48.086;11.632;2022-10-16T13:53:34;1.25;;;0.80;;
22429;SDS011;11382;48.086;11.632;2022-10-16T13:56:04;2.15;;;0.70;;
22429;SDS011;11382;48.086;11.632;2022-10-16T13:58:33;1.38;;;0.75;;
22429;SDS011;11382;48.086;11.632;2022-10-16T14:01:03;1.00;;;0.70;;
22429;SDS011;11382;48.086;11.632;2022-10-16T14:03:33;1.48;;;0.70;;
22429;SDS011;11382;48.086;11.632;2022-10-16T14:06:04;1.20;;;0.85;;
22429;SDS011;11382;48.086;11.632;2022-10-16T14:08:41;2.75;;;0.90;;
22429;SDS011;11382;48.086;11.632;2022-10-16T14:11:10;0.90;;;0.90;;
22429;SDS011;11382;48.086;11.632;2022-10-16T14:13:39;2.13;;;0.73;;
22429;SDS011;11382;48.086;11.632;2022-10-16T14:16:15;1.27;;;1.08;;
22429;SDS011;11382;48.086;11.632;2022-10-16T14:18:45;1.30;;;0.82;;
22429;SDS011;11382;48.086;11.632;2022-10-16T14:21:21;1.30;;;0.80;;
22429;SDS011;11382;48.086;11.632;2022-10-16T14:23:49;1.25;;;0.85;;
22429;SDS011;11382;48.086;11.632;2022-10-16T14:26:18;0.75;;;0.75;;
22429;SDS011;11382;48.086;11.632;2022-10-16T14:28:48;1.42;;;0.75;;
22429;SDS011;11382;48.086;11.632;2022-10-16T14:31:29;1.65;;;1.02;;
22429;SDS011;11382;48.086;11.632;2022-10-16T14:33:59;2.90;;;1.10;;
22429;SDS011;11382;48.086;11.632;2022-10-16T14:36:28;4.07;;;1.05;;
22429;SDS011;11382;48.086;11.632;2022-10-16T14:38:59;2.03;;;0.85;;
22429;SDS011;11382;48.086;11.632;2022-10-16T14:41:29;2.72;;;0.80;;
22429;SDS011;11382;48.086;11.632;2022-10-16T14:44:00;1.58;;;1.00;;
22429;SDS011;11382;48.086;11.632;2022-10-16T14:46:31;2.13;;;0.90;;
22429;SDS011;11382;48.086;11.632;2022-10-16T14:49:03;0.70;;;0.70;;
22429;SDS011;11382;48.086;11.632;2022-10-16T14:51:42;2.47;;;0.75;;
22429;SDS011;11382;48.086;11.632;2022-10-16T14:54:12;2.05;;;0.80;;
22429;SDS011;11382;48.086;11.632;2022-10-16T14:56:42;1.00;;;0.90;;
22429;SDS011;11382;48.086;11.632;2022-10-16T14:59:14;0.90;;;0.80;;
22429;SDS011;11382;48.086;11.632;2022-10-16T15:01:45;0.80;;;0.80;;
22429;SDS011;11382;48.086;11.632;2022-10-16T15:04:13;1.33;;;0.80;;
22429;SDS011;11382;48.086;11.632;2022-10-16T15:06:44;4.40;;;0.80;;
22429;SDS011;11382;48.086;11.632;2022-10-16T15:09:12;1.45;;;0.80;;
22429;SDS011;11382;48.086;11.632;2022-10-16T15:11:40;0.73;;;0.70;;
22429;SDS011;11382;48.086;11.632;2022-10-16T15:14:10;1.02;;;0.80;;
22429;SDS011;11382;48.086;11.632;2022-10-16T15:16:44;2.72;;;0.85;;
22429;SDS011;11382;48.086;11.632;2022-10-16T15:19:13;1.42;;;0.80;;
22429;SDS011;11382;48.086;11.632;2022-10-16T15:21:41;1.00;;;0.80;;